Terminal Aerodrome Forecast
Issued by NWS

Home | Current Version | Previous Version | Text Only | Print | Product List | Glossary On
Versions: 1 2 3 4 5 6 7 8 9 10 11 12 13 14
288
FTUS41 KCAR 280304 AAA
TAFFVE
TAF AMD
KFVE 280304Z 2803/2824 17004KT P6SM BKN005
      TEMPO 2804/2807 -SHRA
     FM280700 VRB03KT 3SM -SHRA BR OVC005
     FM281200 VRB03KT P6SM OVC015
     FM281500 27008KT P6SM OVC035=

USA.gov is the U.S. government's official web portal to all federal, state and local government web resources and services.